Time;durP1;ratioP1;P1;durP2;ratioP2;P2;SDS_P1;SDS_P2;PMS_P1;PMS_P2;Temp;Humidity;BMP_temperature;BMP_pressure;BME280_temperature;BME280_humidity;BME280_pressure;Samples;Min_cycle;Max_cycle;Signal;HPM_P1;HPM_P2
2021/09/25 00:00:21;;;;;;;7.27;4.20;;;15.00;99.90;;;;;;5075720;28;20242;-75
2021/09/25 00:02:48;;;;;;;6.33;4.10;;;15.00;99.90;;;;;;5075866;28;20660;-76
2021/09/25 00:05:15;;;;;;;10.13;3.80;;;15.00;99.90;;;;;;5075942;28;20286;-75
2021/09/25 00:07:42;;;;;;;7.90;4.53;;;15.00;99.90;;;;;;5076015;28;20203;-75
2021/09/25 00:10:10;;;;;;;6.93;4.30;;;15.10;99.90;;;;;;5075696;28;20592;-75
2021/09/25 00:12:36;;;;;;;7.90;4.17;;;15.10;99.90;;;;;;5075139;28;20211;-75
2021/09/25 00:15:06;;;;;;;9.07;4.20;;;15.10;99.90;;;;;;5075263;28;20205;-76
2021/09/25 00:17:33;;;;;;;9.63;4.53;;;15.10;99.90;;;;;;5075771;28;20247;-75
2021/09/25 00:20:00;;;;;;;9.97;4.83;;;15.10;99.90;;;;;;5075606;28;20218;-75
2021/09/25 00:22:27;;;;;;;13.67;4.80;;;15.00;99.90;;;;;;5075413;28;20199;-76
2021/09/25 00:24:54;;;;;;;9.33;4.93;;;15.00;99.90;;;;;;5075317;28;20566;-76
2021/09/25 00:27:20;;;;;;;9.17;5.27;;;15.00;99.90;;;;;;5075127;28;20743;-75
2021/09/25 00:29:47;;;;;;;11.20;5.00;;;15.00;99.90;;;;;;5075069;28;20563;-75
2021/09/25 00:32:15;;;;;;;9.93;5.20;;;15.00;99.90;;;;;;5074917;28;20222;-76
2021/09/25 00:34:42;;;;;;;9.33;5.13;;;14.90;99.90;;;;;;5075200;28;20198;-75
2021/09/25 00:37:09;;;;;;;9.63;5.07;;;15.00;99.90;;;;;;5075301;28;20207;-75
2021/09/25 00:39:36;;;;;;;13.50;5.90;;;15.00;99.90;;;;;;5075186;28;20691;-75
2021/09/25 00:42:03;;;;;;;9.77;5.30;;;15.00;99.90;;;;;;5074928;28;20211;-75
2021/09/25 00:44:31;;;;;;;12.17;5.57;;;14.90;99.90;;;;;;5074811;28;20222;-75
2021/09/25 00:46:58;;;;;;;10.47;5.53;;;14.90;99.90;;;;;;5075174;28;20206;-75
2021/09/25 00:49:27;;;;;;;8.90;6.00;;;14.90;99.90;;;;;;5075126;28;20196;-75
2021/09/25 00:51:54;;;;;;;13.10;6.67;;;14.80;99.90;;;;;;5074794;28;20195;-75
2021/09/25 00:54:21;;;;;;;11.73;6.43;;;14.80;99.90;;;;;;5074678;28;20195;-75
2021/09/25 00:56:49;;;;;;;14.43;7.43;;;14.70;99.90;;;;;;5074704;28;20191;-75
2021/09/25 00:59:17;;;;;;;15.53;7.43;;;14.80;99.90;;;;;;5074345;28;20206;-76
2021/09/25 01:01:44;;;;;;;17.73;7.80;;;14.80;99.90;;;;;;5074883;28;20549;-75
2021/09/25 01:04:11;;;;;;;15.60;7.97;;;14.80;99.90;;;;;;5074756;28;20287;-75
2021/09/25 01:06:40;;;;;;;14.13;7.80;;;14.70;99.90;;;;;;5074727;28;20202;-75
2021/09/25 01:09:07;;;;;;;16.20;7.80;;;14.80;99.90;;;;;;5074306;28;20198;-75
2021/09/25 01:11:34;;;;;;;17.90;8.30;;;14.80;99.90;;;;;;5074370;28;20191;-75
2021/09/25 01:14:02;;;;;;;19.00;8.60;;;14.70;99.90;;;;;;5074446;28;20223;-75
2021/09/25 01:16:28;;;;;;;15.87;7.97;;;14.70;99.90;;;;;;5074668;28;20278;-75
2021/09/25 01:18:55;;;;;;;16.40;9.23;;;14.60;99.90;;;;;;5074609;28;20287;-75
2021/09/25 01:21:24;;;;;;;18.07;8.80;;;14.60;99.90;;;;;;5074366;28;20195;-75
2021/09/25 01:23:51;;;;;;;18.90;9.20;;;14.60;99.90;;;;;;5073963;28;20200;-75
2021/09/25 01:26:20;;;;;;;14.57;7.77;;;14.60;99.90;;;;;;5074133;28;20214;-75
2021/09/25 01:28:47;;;;;;;19.40;8.83;;;14.60;99.90;;;;;;5074235;28;20208;-75
2021/09/25 01:31:15;;;;;;;22.10;10.20;;;14.60;99.90;;;;;;5074185;28;20197;-75
2021/09/25 01:33:45;;;;;;;22.40;9.90;;;14.60;99.90;;;;;;5073724;28;20227;-75
2021/09/25 01:36:13;;;;;;;18.43;9.40;;;14.70;99.90;;;;;;5074059;28;20663;-75
2021/09/25 01:38:43;;;;;;;18.73;9.30;;;14.70;99.90;;;;;;5073979;28;20206;-75
2021/09/25 01:41:11;;;;;;;20.10;9.67;;;14.70;99.90;;;;;;5073874;28;20283;-75
2021/09/25 01:43:38;;;;;;;18.93;9.63;;;14.80;99.90;;;;;;5074101;28;20579;-75
2021/09/25 01:46:05;;;;;;;17.33;9.00;;;14.80;99.90;;;;;;5073649;28;20206;-75
2021/09/25 01:48:32;;;;;;;22.53;9.83;;;14.80;99.90;;;;;;5073844;28;20303;-75
2021/09/25 01:50:59;;;;;;;19.00;10.50;;;14.80;99.90;;;;;;5073711;28;20202;-75
2021/09/25 01:53:25;;;;;;;21.63;10.83;;;14.80;99.90;;;;;;5073546;28;20262;-75
2021/09/25 01:55:54;;;;;;;21.03;10.43;;;14.80;99.90;;;;;;5073604;28;20731;-75
2021/09/25 01:58:21;;;;;;;21.60;11.40;;;14.80;99.90;;;;;;5073794;28;20199;-75
2021/09/25 02:00:48;;;;;;;21.27;10.67;;;14.80;99.90;;;;;;5074001;28;20199;-75
2021/09/25 02:03:14;;;;;;;26.03;12.37;;;14.80;99.90;;;;;;5073545;28;20286;-75
2021/09/25 02:05:42;;;;;;;24.67;11.97;;;14.80;99.90;;;;;;5073372;28;20196;-76
2021/09/25 02:08:09;;;;;;;24.13;11.70;;;14.80;99.90;;;;;;5073221;28;20195;-75
2021/09/25 02:10:36;;;;;;;31.40;12.23;;;14.80;99.90;;;;;;5072469;28;20562;-75
2021/09/25 02:13:04;;;;;;;23.97;11.93;;;14.80;99.90;;;;;;5073396;28;20258;-75
2021/09/25 02:15:33;;;;;;;27.23;12.97;;;14.80;99.90;;;;;;5073780;28;20199;-75
2021/09/25 02:18:00;;;;;;;28.83;13.57;;;14.80;99.90;;;;;;5073091;28;20608;-75
2021/09/25 02:20:27;;;;;;;29.37;13.73;;;14.70;99.90;;;;;;5073028;28;20294;-75
2021/09/25 02:22:54;;;;;;;27.83;13.73;;;14.60;99.90;;;;;;5073309;28;20205;-75
2021/09/25 02:25:20;;;;;;;28.77;13.80;;;14.60;99.90;;;;;;5073196;28;20204;-75
2021/09/25 02:27:51;;;;;;;33.57;14.67;;;14.60;99.90;;;;;;5073212;28;20192;-75
2021/09/25 02:30:20;;;;;;;31.77;14.23;;;14.60;99.90;;;;;;5073049;28;20206;-75
2021/09/25 02:32:47;;;;;;;31.03;15.03;;;14.60;99.90;;;;;;5072567;28;20606;-75
2021/09/25 02:35:16;;;;;;;29.83;14.53;;;14.60;99.90;;;;;;5073129;28;20244;-75
2021/09/25 02:37:42;;;;;;;27.80;13.40;;;14.60;99.90;;;;;;5072868;28;20660;-75
2021/09/25 02:40:11;;;;;;;28.87;15.07;;;14.60;99.90;;;;;;5073252;28;20201;-75
2021/09/25 02:42:38;;;;;;;33.00;15.20;;;14.70;99.90;;;;;;5072828;28;20730;-75
2021/09/25 02:45:07;;;;;;;31.30;14.97;;;14.80;99.90;;;;;;5072774;28;20198;-75
2021/09/25 02:47:35;;;;;;;33.23;15.60;;;14.80;99.90;;;;;;5073099;28;20195;-75
2021/09/25 02:50:02;;;;;;;31.00;15.13;;;14.90;99.90;;;;;;5072845;28;20195;-75
2021/09/25 02:52:29;;;;;;;31.90;15.40;;;15.10;99.90;;;;;;5072776;28;20199;-75
2021/09/25 02:54:56;;;;;;;32.00;15.33;;;15.00;99.90;;;;;;5072995;28;20196;-75
2021/09/25 02:57:22;;;;;;;32.80;15.87;;;15.00;99.90;;;;;;5072807;28;20191;-75
2021/09/25 02:59:49;;;;;;;32.97;15.93;;;15.00;99.90;;;;;;5072530;28;20290;-75
2021/09/25 03:02:16;;;;;;;31.97;14.63;;;15.00;99.90;;;;;;5076817;28;20195;-75
2021/09/25 03:04:44;;;;;;;31.37;14.90;;;15.00;99.90;;;;;;5080799;28;20199;-75
2021/09/25 03:07:11;;;;;;;30.33;15.57;;;15.10;99.90;;;;;;5072580;28;20199;-76
2021/09/25 03:09:38;;;;;;;28.13;14.93;;;15.10;99.90;;;;;;5072755;28;20195;-76
2021/09/25 03:12:05;;;;;;;33.63;15.67;;;15.00;99.90;;;;;;5072674;28;20196;-75
2021/09/25 03:14:32;;;;;;;31.20;16.27;;;15.00;99.90;;;;;;5072274;28;20225;-75
2021/09/25 03:16:59;;;;;;;31.97;15.90;;;15.10;99.90;;;;;;5072642;28;20196;-75
2021/09/25 03:19:26;;;;;;;30.07;16.40;;;15.20;99.90;;;;;;5072720;28;20234;-75
2021/09/25 03:21:54;;;;;;;29.17;15.10;;;15.20;99.90;;;;;;5074310;28;20196;-76
2021/09/25 03:24:21;;;;;;;30.40;16.20;;;15.20;99.90;;;;;;5076588;28;20215;-75
2021/09/25 03:26:47;;;;;;;31.83;16.53;;;15.10;99.90;;;;;;5076341;28;20202;-75
2021/09/25 03:29:14;;;;;;;33.83;15.90;;;15.10;99.90;;;;;;5076504;28;20283;-75
2021/09/25 03:31:41;;;;;;;32.37;15.60;;;15.10;99.90;;;;;;5076219;28;20656;-75
2021/09/25 03:34:08;;;;;;;36.20;17.73;;;15.20;99.90;;;;;;5075932;28;20321;-75
2021/09/25 03:36:35;;;;;;;30.37;15.93;;;15.20;99.90;;;;;;5076146;28;20198;-75
2021/09/25 03:39:03;;;;;;;31.13;15.73;;;15.20;99.90;;;;;;5076164;28;20199;-75
2021/09/25 03:41:30;;;;;;;30.87;15.90;;;15.10;99.90;;;;;;5075976;28;20294;-75
2021/09/25 03:43:57;;;;;;;31.03;16.03;;;15.00;99.90;;;;;;5076177;28;20294;-75
2021/09/25 03:46:24;;;;;;;30.30;15.37;;;14.90;99.90;;;;;;5076092;28;20667;-75
2021/09/25 03:48:51;;;;;;;31.80;16.53;;;14.90;99.90;;;;;;5076189;28;20223;-75
2021/09/25 03:51:18;;;;;;;31.20;16.80;;;14.90;99.90;;;;;;5076050;28;20728;-75
2021/09/25 03:53:45;;;;;;;28.63;15.73;;;14.90;99.90;;;;;;5075789;28;20676;-75
2021/09/25 03:56:13;;;;;;;31.20;16.40;;;14.90;99.90;;;;;;5075650;28;20678;-75
2021/09/25 03:58:41;;;;;;;31.97;15.20;;;14.80;99.90;;;;;;5075893;28;20195;-75
2021/09/25 04:01:10;;;;;;;34.20;15.60;;;14.80;99.90;;;;;;5075774;28;20671;-75
2021/09/25 04:03:37;;;;;;;34.53;17.50;;;14.90;99.90;;;;;;5075793;28;20199;-76
2021/09/25 04:06:04;;;;;;;32.17;16.30;;;14.80;99.90;;;;;;5075660;28;20292;-75
2021/09/25 04:08:32;;;;;;;30.90;15.77;;;14.80;99.90;;;;;;5075452;28;20214;-75
2021/09/25 04:10:59;;;;;;;30.63;16.30;;;14.80;99.90;;;;;;5075819;28;20202;-75
2021/09/25 04:13:27;;;;;;;33.63;16.70;;;14.80;99.90;;;;;;5075887;28;20326;-75
2021/09/25 04:15:54;;;;;;;30.63;16.67;;;14.80;99.90;;;;;;5075660;28;20202;-75
2021/09/25 04:18:21;;;;;;;34.70;15.90;;;14.80;99.90;;;;;;5075284;28;20202;-75
2021/09/25 04:20:48;;;;;;;30.73;16.13;;;14.70;99.90;;;;;;5075429;28;20195;-75
2021/09/25 04:23:14;;;;;;;33.73;16.27;;;14.80;99.90;;;;;;5075230;28;20199;-75
2021/09/25 04:25:41;;;;;;;33.50;16.10;;;14.60;99.90;;;;;;5075109;28;20196;-75
2021/09/25 04:28:09;;;;;;;35.63;17.20;;;14.60;99.90;;;;;;5075302;28;20242;-75
2021/09/25 04:30:39;;;;;;;29.73;16.37;;;14.50;99.90;;;;;;5075230;28;20200;-75
2021/09/25 04:33:08;;;;;;;32.73;16.00;;;14.50;99.90;;;;;;5074119;28;20214;-75
2021/09/25 04:35:35;;;;;;;30.43;15.23;;;14.50;99.90;;;;;;5075019;28;20206;-75
2021/09/25 04:38:02;;;;;;;34.60;16.57;;;14.50;99.90;;;;;;5075363;28;20567;-75
2021/09/25 04:40:30;;;;;;;33.23;17.00;;;14.40;99.90;;;;;;5074970;28;20751;-75
2021/09/25 04:42:57;;;;;;;35.07;16.90;;;14.30;99.90;;;;;;5075181;28;20265;-75
2021/09/25 04:45:24;;;;;;;37.53;17.77;;;14.30;99.90;;;;;;5074914;28;20206;-75
2021/09/25 04:47:52;;;;;;;35.60;17.57;;;14.30;99.90;;;;;;5074955;28;20558;-75
2021/09/25 04:50:20;;;;;;;37.07;17.67;;;14.20;99.90;;;;;;5074712;28;20191;-75
2021/09/25 04:52:47;;;;;;;38.50;17.23;;;14.20;99.90;;;;;;5074935;28;20205;-75
2021/09/25 04:55:14;;;;;;;38.23;18.17;;;14.20;99.90;;;;;;5074602;28;20313;-75
2021/09/25 04:57:42;;;;;;;41.10;17.37;;;14.20;99.90;;;;;;5074973;28;20557;-75
2021/09/25 05:00:10;;;;;;;38.27;17.60;;;14.20;99.90;;;;;;5074854;28;20202;-75
2021/09/25 05:02:37;;;;;;;36.27;17.63;;;14.10;99.90;;;;;;5074620;28;20195;-75
2021/09/25 05:05:06;;;;;;;35.80;17.13;;;14.10;99.90;;;;;;5074565;28;20207;-75
2021/09/25 05:07:35;;;;;;;42.23;18.57;;;14.00;99.90;;;;;;5074481;28;20198;-75
2021/09/25 05:10:02;;;;;;;42.97;17.67;;;14.00;99.90;;;;;;5074606;28;20230;-76
2021/09/25 05:12:29;;;;;;;36.70;17.83;;;14.10;99.90;;;;;;5074467;28;20202;-75
2021/09/25 05:14:56;;;;;;;42.23;18.37;;;14.10;99.90;;;;;;5074257;28;20692;-75
2021/09/25 05:17:23;;;;;;;40.70;17.47;;;14.20;99.90;;;;;;5074315;28;20219;-75
2021/09/25 05:19:49;;;;;;;39.53;17.73;;;14.10;99.90;;;;;;5074568;28;20199;-75
2021/09/25 05:22:18;;;;;;;38.07;17.33;;;14.10;99.90;;;;;;5074044;28;20291;-75
2021/09/25 05:24:45;;;;;;;41.10;18.23;;;14.10;99.90;;;;;;5074135;28;20290;-75
2021/09/25 05:27:12;;;;;;;51.67;18.63;;;14.00;99.90;;;;;;5074250;28;20202;-75
2021/09/25 05:29:39;;;;;;;43.03;18.30;;;14.00;99.90;;;;;;5074079;28;20207;-75
2021/09/25 05:32:07;;;;;;;45.03;19.53;;;14.00;99.90;;;;;;5073980;28;20657;-75
2021/09/25 05:34:34;;;;;;;45.57;19.27;;;14.10;99.90;;;;;;5073816;28;20321;-75
2021/09/25 05:37:01;;;;;;;41.57;17.83;;;14.10;99.90;;;;;;5073977;28;20195;-75
2021/09/25 05:39:29;;;;;;;43.50;18.47;;;14.20;99.90;;;;;;5074035;28;20196;-75
2021/09/25 05:41:56;;;;;;;42.73;18.40;;;14.20;99.90;;;;;;5073825;28;20206;-75
2021/09/25 05:44:23;;;;;;;41.67;18.90;;;14.10;99.90;;;;;;5073511;28;20222;-75
2021/09/25 05:46:50;;;;;;;45.80;19.97;;;14.00;99.90;;;;;;5074030;28;20199;-75
2021/09/25 05:49:17;;;;;;;48.13;19.77;;;14.00;99.90;;;;;;5073567;28;20295;-76
2021/09/25 05:51:43;;;;;;;46.53;19.27;;;14.00;99.90;;;;;;5073830;28;20209;-75
2021/09/25 05:54:10;;;;;;;46.83;19.10;;;14.00;99.90;;;;;;5073563;28;20219;-75
2021/09/25 05:56:38;;;;;;;50.67;19.70;;;13.90;99.90;;;;;;5073623;28;20644;-75
2021/09/25 05:59:05;;;;;;;45.80;19.43;;;14.00;99.90;;;;;;5073466;28;20648;-76
2021/09/25 06:01:32;;;;;;;47.03;19.53;;;14.00;99.90;;;;;;5073745;28;20199;-75
2021/09/25 06:03:59;;;;;;;42.97;19.00;;;13.90;99.90;;;;;;5073497;28;20206;-75
2021/09/25 06:06:27;;;;;;;45.20;19.37;;;14.00;99.90;;;;;;5086077;28;20290;-75
2021/09/25 06:08:54;;;;;;;42.13;18.87;;;14.00;99.90;;;;;;5073306;28;20294;-75
2021/09/25 06:11:21;;;;;;;42.80;19.30;;;14.00;99.90;;;;;;5073461;28;20202;-75
2021/09/25 06:13:49;;;;;;;39.97;19.73;;;14.20;99.90;;;;;;5073546;28;20278;-75
2021/09/25 06:16:16;;;;;;;42.47;18.97;;;14.20;99.90;;;;;;5073118;28;20589;-75
2021/09/25 06:18:43;;;;;;;37.07;18.40;;;14.30;99.90;;;;;;5073051;28;20201;-75
2021/09/25 06:21:10;;;;;;;41.73;18.63;;;14.30;99.90;;;;;;5073309;28;20209;-75
2021/09/25 06:23:37;;;;;;;39.93;18.47;;;14.40;99.90;;;;;;5073343;28;20199;-76
2021/09/25 06:26:04;;;;;;;40.13;18.10;;;14.30;99.90;;;;;;5073045;28;20198;-76
2021/09/25 06:28:31;;;;;;;36.37;18.73;;;14.40;99.90;;;;;;5073407;28;20567;-76
2021/09/25 06:30:59;;;;;;;40.90;18.27;;;14.40;99.90;;;;;;5073303;28;20579;-76
2021/09/25 06:33:26;;;;;;;37.70;17.80;;;14.40;99.90;;;;;;5072924;28;20291;-76
2021/09/25 06:35:53;;;;;;;34.23;17.53;;;14.40;99.90;;;;;;5073109;28;20235;-75
2021/09/25 06:38:20;;;;;;;36.73;18.50;;;14.40;99.90;;;;;;5073053;28;20642;-75
2021/09/25 06:40:48;;;;;;;34.53;16.63;;;14.40;99.90;;;;;;5072867;28;20200;-75
2021/09/25 06:43:15;;;;;;;36.27;16.93;;;14.40;99.90;;;;;;5073010;28;20694;-75
2021/09/25 06:45:42;;;;;;;30.67;16.47;;;14.50;99.90;;;;;;5072866;28;20571;-75
2021/09/25 06:48:10;;;;;;;33.77;16.93;;;14.50;99.90;;;;;;5072997;28;20195;-75
2021/09/25 06:50:37;;;;;;;28.10;15.10;;;14.50;99.90;;;;;;5072879;28;20575;-75
2021/09/25 06:53:04;;;;;;;30.00;15.73;;;14.60;99.90;;;;;;5072879;28;20223;-75
2021/09/25 06:55:31;;;;;;;30.13;15.40;;;14.70;99.90;;;;;;5072896;28;20231;-75
2021/09/25 06:57:58;;;;;;;28.43;15.03;;;14.70;99.90;;;;;;5079342;28;20199;-75
2021/09/25 07:00:25;;;;;;;28.37;14.40;;;14.70;99.90;;;;;;5079447;28;20289;-75
2021/09/25 07:02:52;;;;;;;24.47;14.07;;;14.80;99.90;;;;;;5079509;28;20199;-75
2021/09/25 07:05:20;;;;;;;27.50;14.30;;;14.90;99.90;;;;;;5079470;28;20195;-75
2021/09/25 07:07:47;;;;;;;27.47;14.00;;;15.00;99.90;;;;;;5079214;28;20188;-75
2021/09/25 07:10:14;;;;;;;27.70;14.53;;;15.00;99.90;;;;;;5079302;28;20201;-76
2021/09/25 07:12:41;;;;;;;25.10;13.77;;;15.00;99.90;;;;;;5079285;28;20195;-75
2021/09/25 07:15:10;;;;;;;25.03;13.77;;;15.00;99.90;;;;;;5079238;28;20230;-75
2021/09/25 07:17:37;;;;;;;28.87;14.73;;;15.10;99.90;;;;;;5079367;28;20202;-75
2021/09/25 07:20:06;;;;;;;26.60;14.67;;;15.20;99.90;;;;;;5079362;28;20195;-75
2021/09/25 07:22:34;;;;;;;27.03;13.67;;;15.20;99.90;;;;;;5078830;28;20210;-76
2021/09/25 07:25:01;;;;;;;28.30;14.17;;;15.30;99.90;;;;;;5078732;28;20495;-76
2021/09/25 07:27:28;;;;;;;26.60;14.67;;;15.30;99.90;;;;;;5079332;28;20233;-76
2021/09/25 07:29:55;;;;;;;26.03;14.50;;;15.30;99.90;;;;;;5079048;28;20203;-75
2021/09/25 07:32:22;;;;;;;29.03;13.53;;;15.50;99.90;;;;;;5078976;28;20206;-75
2021/09/25 07:34:49;;;;;;;24.40;14.13;;;15.50;99.90;;;;;;5078993;28;20255;-76
2021/09/25 07:37:16;;;;;;;25.57;13.43;;;15.50;99.90;;;;;;5079339;28;20286;-75
2021/09/25 07:39:44;;;;;;;26.90;14.93;;;15.50;99.90;;;;;;5078432;28;20290;-75
2021/09/25 07:42:11;;;;;;;27.07;14.83;;;15.60;99.90;;;;;;5079266;28;20584;-76
2021/09/25 07:44:39;;;;;;;27.17;14.43;;;15.60;99.90;;;;;;5078158;28;20225;-76
2021/09/25 07:47:06;;;;;;;25.97;14.50;;;15.60;99.90;;;;;;5078984;28;20278;-76
2021/09/25 07:49:33;;;;;;;26.23;14.03;;;15.60;99.90;;;;;;5078767;28;20197;-75
2021/09/25 07:51:59;;;;;;;23.23;14.23;;;15.80;99.90;;;;;;5079212;28;20199;-75
2021/09/25 07:54:26;;;;;;;26.83;14.20;;;15.80;99.90;;;;;;5079069;28;20245;-75
2021/09/25 07:56:54;;;;;;;24.10;13.93;;;15.90;99.90;;;;;;5078415;28;20734;-75
2021/09/25 07:59:21;;;;;;;25.43;13.97;;;15.90;99.90;;;;;;5078907;28;20638;-75
2021/09/25 08:01:48;;;;;;;26.47;13.73;;;16.00;99.90;;;;;;5078926;28;20207;-75
2021/09/25 08:04:15;;;;;;;21.83;13.20;;;16.10;99.90;;;;;;5078732;28;20204;-75
2021/09/25 08:06:42;;;;;;;22.63;12.27;;;16.20;99.90;;;;;;5078333;28;20198;-75
2021/09/25 08:09:09;;;;;;;22.30;12.57;;;16.30;99.90;;;;;;5074603;28;20214;-75
2021/09/25 08:11:36;;;;;;;24.30;13.10;;;16.30;99.90;;;;;;5075688;28;20537;-75
2021/09/25 08:14:05;;;;;;;20.00;12.33;;;16.30;99.90;;;;;;5075406;28;20214;-75
2021/09/25 08:16:32;;;;;;;21.07;11.73;;;16.40;99.90;;;;;;5074139;28;20314;-75
2021/09/25 08:18:59;;;;;;;17.77;11.10;;;16.40;99.90;;;;;;5075336;28;20200;-75
2021/09/25 08:21:25;;;;;;;19.57;11.30;;;16.50;99.90;;;;;;5075680;28;20199;-75
2021/09/25 08:23:53;;;;;;;21.17;10.87;;;16.60;99.90;;;;;;5075554;28;20287;-76
2021/09/25 08:26:19;;;;;;;18.43;10.90;;;16.60;99.90;;;;;;5075704;28;20313;-75
2021/09/25 08:28:46;;;;;;;21.83;11.83;;;16.70;99.90;;;;;;5075470;28;20196;-75
2021/09/25 08:31:14;;;;;;;16.07;10.37;;;16.80;99.90;;;;;;5075212;28;20345;-75
2021/09/25 08:33:41;;;;;;;15.57;10.03;;;16.90;99.90;;;;;;5075105;28;20216;-75
2021/09/25 08:36:08;;;;;;;19.33;11.23;;;16.90;99.90;;;;;;5075223;28;20219;-75
2021/09/25 08:38:35;;;;;;;15.73;10.47;;;17.00;99.90;;;;;;5075143;28;20598;-76
2021/09/25 08:41:02;;;;;;;20.40;11.00;;;17.00;99.90;;;;;;5075248;28;20203;-75
2021/09/25 08:43:29;;;;;;;19.00;10.47;;;17.10;99.90;;;;;;5075089;28;20267;-75
2021/09/25 08:45:57;;;;;;;17.13;10.33;;;17.10;99.90;;;;;;5075228;28;20200;-76
2021/09/25 08:48:27;;;;;;;21.93;11.10;;;17.20;99.90;;;;;;5075218;28;20207;-75
2021/09/25 08:50:54;;;;;;;16.97;10.03;;;17.30;99.90;;;;;;5075202;28;20203;-75
2021/09/25 08:53:22;;;;;;;16.97;10.73;;;17.40;99.90;;;;;;5074892;28;20226;-75
2021/09/25 08:55:49;;;;;;;16.73;10.20;;;17.50;99.90;;;;;;5074433;28;20222;-75
2021/09/25 08:58:16;;;;;;;16.97;10.27;;;17.60;99.90;;;;;;5075052;28;20302;-75
2021/09/25 09:00:45;;;;;;;19.90;10.90;;;17.80;99.90;;;;;;5074305;28;20204;-75
2021/09/25 09:03:32;;;;;;;18.57;9.37;;;17.80;99.90;;;;;;5054867;28;20283;-75
2021/09/25 09:06:16;;;;;;;17.77;10.00;;;17.90;99.90;;;;;;5064376;28;20204;-75
2021/09/25 09:08:44;;;;;;;18.90;11.07;;;18.00;99.90;;;;;;5074085;28;20567;-75
2021/09/25 09:11:12;;;;;;;18.30;11.23;;;18.00;99.90;;;;;;5069504;28;20661;-75
2021/09/25 09:13:43;;;;;;;17.97;10.77;;;18.20;99.90;;;;;;5073759;28;20199;-75
2021/09/25 09:16:12;;;;;;;17.97;9.77;;;18.30;99.90;;;;;;5074483;28;20219;-75
2021/09/25 09:18:43;;;;;;;14.50;9.77;;;18.40;99.90;;;;;;5074254;28;20660;-75
2021/09/25 09:21:13;;;;;;;17.50;9.80;;;18.50;99.90;;;;;;5073532;28;20194;-75
2021/09/25 09:23:43;;;;;;;18.13;9.77;;;18.50;99.90;;;;;;5074173;28;20246;-75
2021/09/25 09:26:16;;;;;;;12.57;8.97;;;18.60;99.90;;;;;;5074413;28;20192;-75
2021/09/25 09:28:43;;;;;;;17.77;10.00;;;18.70;99.90;;;;;;5074361;28;20199;-74
2021/09/25 09:31:11;;;;;;;14.40;10.17;;;18.80;99.90;;;;;;5074309;28;20206;-75
2021/09/25 09:33:41;;;;;;;16.70;9.93;;;18.90;99.90;;;;;;5073923;28;20207;-76
2021/09/25 09:36:27;;;;;;;17.00;9.97;;;18.90;99.90;;;;;;5074165;28;20234;-75
2021/09/25 09:39:00;;;;;;;17.23;9.93;;;19.00;99.90;;;;;;5074202;28;20201;-75
2021/09/25 09:41:29;;;;;;;15.83;9.60;;;18.90;99.90;;;;;;5074019;28;20207;-75
2021/09/25 09:43:59;;;;;;;13.53;8.70;;;19.00;99.90;;;;;;5073858;28;20231;-75
2021/09/25 09:46:35;;;;;;;16.97;9.83;;;19.10;99.90;;;;;;5073136;28;20648;-75
2021/09/25 09:49:05;;;;;;;15.33;10.43;;;19.20;99.90;;;;;;5072334;28;20664;-77
2021/09/25 09:51:41;;;;;;;14.50;8.97;;;19.20;99.90;;;;;;5072896;28;20206;-77
2021/09/25 09:54:21;;;;;;;14.77;9.30;;;19.20;99.90;;;;;;5070378;28;20191;-75
2021/09/25 09:56:49;;;;;;;14.13;9.60;;;19.20;99.90;;;;;;5072859;28;20225;-75
2021/09/25 09:59:16;;;;;;;19.33;9.57;;;19.20;99.90;;;;;;5073780;28;20195;-75
2021/09/25 10:01:45;;;;;;;15.50;9.33;;;19.30;99.90;;;;;;5072920;28;20195;-75
2021/09/25 10:04:14;;;;;;;12.67;8.93;;;19.50;99.90;;;;;;5073520;28;20226;-75
2021/09/25 10:06:42;;;;;;;12.60;8.17;;;19.50;99.90;;;;;;5073319;28;20209;-75
2021/09/25 10:09:10;;;;;;;13.13;8.67;;;19.60;99.90;;;;;;5073302;28;20222;-75
2021/09/25 10:11:39;;;;;;;12.73;7.57;;;20.70;99.90;;;;;;5073548;28;20206;-75
2021/09/25 10:14:07;;;;;;;9.73;7.90;;;22.60;99.90;;;;;;5072996;28;20195;-75
2021/09/25 10:16:35;;;;;;;9.20;7.40;;;24.20;99.90;;;;;;5073120;28;20227;-75
2021/09/25 10:19:03;;;;;;;10.38;7.63;;;25.60;99.90;;;;;;5073241;28;20192;-75
2021/09/25 10:21:34;;;;;;;10.30;7.28;;;26.90;99.90;;;;;;5073187;28;20659;-75
2021/09/25 10:24:06;;;;;;;9.48;7.53;;;27.70;99.90;;;;;;5073558;28;20204;-75
2021/09/25 10:26:33;;;;;;;8.98;7.30;;;28.10;99.90;;;;;;5073108;28;20200;-75
2021/09/25 10:29:02;;;;;;;8.32;6.70;;;29.40;99.90;;;;;;5073243;28;20200;-75
2021/09/25 10:31:29;;;;;;;9.38;6.72;;;30.20;99.90;;;;;;5072252;28;20198;-75
2021/09/25 10:34:15;;;;;;;8.85;6.45;;;30.40;99.90;;;;;;5072884;28;20587;-75
2021/09/25 10:36:48;;;;;;;9.05;6.30;;;30.70;99.90;;;;;;5072428;28;20219;-75
2021/09/25 10:39:28;;;;;;;8.07;6.57;;;31.00;99.90;;;;;;5072755;28;20195;-75
2021/09/25 10:42:10;;;;;;;7.55;6.40;;;30.90;99.90;;;;;;5072952;28;20209;-75
2021/09/25 10:44:50;;;;;;;8.27;7.28;;;31.40;99.90;;;;;;5072449;28;20283;-75
2021/09/25 10:47:19;;;;;;;8.93;6.60;;;31.60;99.90;;;;;;5072068;28;20563;-75
2021/09/25 10:49:53;;;;;;;8.20;6.43;;;31.60;99.90;;;;;;5072060;28;20222;-75
2021/09/25 10:52:24;;;;;;;6.70;5.28;;;31.70;99.90;;;;;;5065329;28;20206;-75
2021/09/25 10:55:22;;;;;;;6.15;5.10;;;31.70;99.90;;;;;;5073041;28;20274;-75
2021/09/25 10:58:19;;;;;;;6.65;4.85;;;31.60;99.90;;;;;;5049108;28;20200;-75
2021/09/25 11:00:55;;;;;;;5.07;4.55;;;31.40;99.90;;;;;;5071483;28;20242;-75
2021/09/25 11:03:58;;;;;;;5.85;4.85;;;31.80;99.90;;;;;;5072447;28;20195;-75
2021/09/25 11:06:31;;;;;;;6.50;5.22;;;32.10;99.90;;;;;;5063856;28;20206;-75
2021/09/25 11:09:02;;;;;;;6.20;4.85;;;31.90;99.90;;;;;;5071538;28;20362;-75
2021/09/25 11:11:39;;;;;;;7.35;5.25;;;31.80;99.90;;;;;;5072500;28;20184;-75
2021/09/25 11:14:15;;;;;;;6.32;4.63;;;31.20;99.90;;;;;;5071793;28;20572;-75
2021/09/25 11:16:53;;;;;;;4.65;3.72;;;30.60;99.90;;;;;;5071069;28;20683;-75
2021/09/25 11:19:31;;;;;;;5.15;3.70;;;30.60;99.90;;;;;;5070089;28;20199;-75
2021/09/25 11:22:00;;;;;;;7.22;4.82;;;30.00;99.90;;;;;;5072230;28;20200;-75
2021/09/25 11:24:30;;;;;;;5.18;4.03;;;30.20;99.90;;;;;;5070318;28;20203;-75
2021/09/25 11:26:57;;;;;;;10.77;4.85;;;30.20;99.90;;;;;;5072379;28;20265;-75
2021/09/25 11:29:24;;;;;;;7.20;5.35;;;30.30;99.90;;;;;;5072656;28;20196;-75
2021/09/25 11:32:01;;;;;;;6.95;5.53;;;30.00;99.90;;;;;;5072539;28;20227;-75
2021/09/25 11:34:29;;;;;;;6.70;5.60;;;30.20;99.90;;;;;;5072332;28;20672;-75
2021/09/25 11:36:58;;;;;;;7.00;6.18;;;30.00;99.90;;;;;;5072193;28;20223;-75
2021/09/25 11:39:38;;;;;;;7.47;4.88;;;29.90;99.90;;;;;;5071824;28;20209;-75
2021/09/25 11:42:09;;;;;;;6.90;4.63;;;29.90;99.90;;;;;;5068530;28;20290;-75
2021/09/25 11:44:51;;;;;;;6.03;4.05;;;29.50;99.90;;;;;;5076007;28;20684;-75
2021/09/25 11:47:27;;;;;;;5.13;4.07;;;29.40;99.90;;;;;;5075753;28;20217;-75
2021/09/25 11:49:54;;;;;;;7.45;5.53;;;29.20;99.90;;;;;;5075988;28;20195;-75
2021/09/25 11:52:22;;;;;;;10.63;4.93;;;28.10;99.90;;;;;;5075861;28;20687;-75
2021/09/25 11:54:50;;;;;;;6.38;4.60;;;27.80;99.90;;;;;;5070855;28;20565;-75
2021/09/25 11:57:19;;;;;;;8.80;5.60;;;27.80;99.90;;;;;;5075645;28;20223;-75
2021/09/25 11:59:46;;;;;;;9.15;5.72;;;27.60;99.90;;;;;;5070923;28;20283;-75
2021/09/25 12:02:36;;;;;;;6.97;5.05;;;27.40;99.90;;;;;;5070066;28;20286;-75
2021/09/25 12:05:04;;;;;;;10.02;6.05;;;27.20;99.90;;;;;;5074995;28;20211;-73
2021/09/25 12:07:43;;;;;;;12.25;5.95;;;27.00;99.90;;;;;;5060103;28;20200;-74
2021/09/25 12:10:19;;;;;;;7.60;5.55;;;26.80;99.90;;;;;;5055434;28;20200;-75
2021/09/25 12:12:46;;;;;;;8.80;5.57;;;26.70;99.90;;;;;;5055680;28;20200;-75
2021/09/25 12:15:22;;;;;;;7.38;5.60;;;26.40;99.90;;;;;;5055751;28;20196;-74
2021/09/25 12:18:15;;;;;;;6.70;5.10;;;26.70;99.90;;;;;;5055593;28;20322;-74
2021/09/25 12:20:43;;;;;;;5.90;4.93;;;26.50;99.90;;;;;;5055397;28;20204;-75
2021/09/25 12:23:10;;;;;;;6.35;5.22;;;26.50;99.90;;;;;;5055364;28;20196;-75
2021/09/25 12:25:41;;;;;;;10.90;5.43;;;26.40;99.90;;;;;;5055569;28;20196;-74
2021/09/25 12:28:29;;;;;;;6.43;4.80;;;26.40;99.90;;;;;;5055525;28;20287;-74
2021/09/25 12:30:57;;;;;;;7.10;4.78;;;26.50;99.90;;;;;;5055370;28;20206;-75
2021/09/25 12:33:24;;;;;;;7.13;4.78;;;26.50;99.90;;;;;;5055064;28;20208;-75
2021/09/25 12:35:59;;;;;;;9.73;5.68;;;26.70;99.90;;;;;;5055197;28;20232;-75
2021/09/25 12:38:30;;;;;;;6.03;4.70;;;26.80;99.90;;;;;;5055321;28;20195;-75
2021/09/25 12:41:08;;;;;;;10.70;4.90;;;27.00;99.90;;;;;;5055189;28;20196;-75